Terminal Aerodrome Forecast
Issued by NWS

Home | Current Version | Previous Version | Text Only | Print | Product List | Glossary On
Versions: 1 2 3 4 5 6 7 8 9 10 11 12 13 14
267
FTUS42 KGSP 111720
TAFAND
TAF
KAND 111720Z 1118/1218 22007KT P6SM FEW070 SCT250
      TEMPO 1118/1122 27008KT SCT070
     FM120500 06003KT P6SM BKN070
     FM121500 04005KT P6SM OVC030=

USA.gov is the U.S. government's official web portal to all federal, state and local government web resources and services.